sensor_id;sensor_type;location;lat;lon;timestamp;temperature;humidity
71837;DHT22;59686;51.716;7.016;2023-01-10T00:00:39;9.70;86.20
71837;DHT22;59686;51.716;7.016;2023-01-10T00:03:07;9.70;86.20
71837;DHT22;59686;51.716;7.016;2023-01-10T00:05:37;9.70;86.00
71837;DHT22;59686;51.716;7.016;2023-01-10T00:08:04;9.80;86.00
71837;DHT22;59686;51.716;7.016;2023-01-10T00:10:33;9.60;85.90
71837;DHT22;59686;51.716;7.016;2023-01-10T00:12:59;9.70;86.00
71837;DHT22;59686;51.716;7.016;2023-01-10T00:15:44;9.60;85.90
71837;DHT22;59686;51.716;7.016;2023-01-10T00:18:10;9.60;85.90
71837;DHT22;59686;51.716;7.016;2023-01-10T00:20:36;9.60;85.80
71837;DHT22;59686;51.716;7.016;2023-01-10T00:23:02;9.60;85.80
71837;DHT22;59686;51.716;7.016;2023-01-10T00:25:30;9.60;85.80
71837;DHT22;59686;51.716;7.016;2023-01-10T00:27:58;9.60;85.70
71837;DHT22;59686;51.716;7.016;2023-01-10T00:30:38;9.60;85.70
71837;DHT22;59686;51.716;7.016;2023-01-10T00:33:04;9.60;85.80
71837;DHT22;59686;51.716;7.016;2023-01-10T00:35:30;9.60;85.80
71837;DHT22;59686;51.716;7.016;2023-01-10T00:37:55;9.60;85.80
71837;DHT22;59686;51.716;7.016;2023-01-10T00:40:33;9.60;85.70
71837;DHT22;59686;51.716;7.016;2023-01-10T00:42:59;9.60;85.80
71837;DHT22;59686;51.716;7.016;2023-01-10T00:45:47;9.60;85.80
71837;DHT22;59686;51.716;7.016;2023-01-10T00:48:13;9.60;86.40
71837;DHT22;59686;51.716;7.016;2023-01-10T00:50:39;9.60;85.80
71837;DHT22;59686;51.716;7.016;2023-01-10T00:53:13;9.60;85.80
71837;DHT22;59686;51.716;7.016;2023-01-10T00:55:38;9.60;85.90
71837;DHT22;59686;51.716;7.016;2023-01-10T00:58:05;9.60;86.00
71837;DHT22;59686;51.716;7.016;2023-01-10T01:00:31;9.60;85.90
71837;DHT22;59686;51.716;7.016;2023-01-10T01:02:57;9.60;85.90
71837;DHT22;59686;51.716;7.016;2023-01-10T01:05:22;9.60;85.80
71837;DHT22;59686;51.716;7.016;2023-01-10T01:07:50;9.60;85.90
71837;DHT22;59686;51.716;7.016;2023-01-10T01:10:17;9.60;85.80
71837;DHT22;59686;51.716;7.016;2023-01-10T01:12:57;9.60;85.80
71837;DHT22;59686;51.716;7.016;2023-01-10T01:15:25;9.60;85.80
71837;DHT22;59686;51.716;7.016;2023-01-10T01:17:51;9.60;85.90
71837;DHT22;59686;51.716;7.016;2023-01-10T01:20:23;9.50;85.90
71837;DHT22;59686;51.716;7.016;2023-01-10T01:22:49;9.60;86.00
71837;DHT22;59686;51.716;7.016;2023-01-10T01:25:15;9.50;85.90
71837;DHT22;59686;51.716;7.016;2023-01-10T01:27:40;9.60;85.80
71837;DHT22;59686;51.716;7.016;2023-01-10T01:30:07;9.50;85.70
71837;DHT22;59686;51.716;7.016;2023-01-10T01:32:33;9.50;85.50
71837;DHT22;59686;51.716;7.016;2023-01-10T01:34:59;9.50;85.60
71837;DHT22;59686;51.716;7.016;2023-01-10T01:37:25;9.50;85.50
71837;DHT22;59686;51.716;7.016;2023-01-10T01:39:50;9.50;85.60
71837;DHT22;59686;51.716;7.016;2023-01-10T01:42:27;9.50;86.40
71837;DHT22;59686;51.716;7.016;2023-01-10T01:45:17;9.50;85.70
71837;DHT22;59686;51.716;7.016;2023-01-10T01:48:10;9.50;85.60
71837;DHT22;59686;51.716;7.016;2023-01-10T01:51:07;9.50;85.60
71837;DHT22;59686;51.716;7.016;2023-01-10T01:53:56;9.50;85.60
71837;DHT22;59686;51.716;7.016;2023-01-10T01:59:43;9.50;85.60
71837;DHT22;59686;51.716;7.016;2023-01-10T02:02:14;9.40;86.40
71837;DHT22;59686;51.716;7.016;2023-01-10T02:04:52;9.50;85.70
71837;DHT22;59686;51.716;7.016;2023-01-10T02:07:19;9.50;85.70
71837;DHT22;59686;51.716;7.016;2023-01-10T02:09:48;9.50;85.70
71837;DHT22;59686;51.716;7.016;2023-01-10T02:12:16;9.40;85.60
71837;DHT22;59686;51.716;7.016;2023-01-10T02:14:46;9.50;85.70
71837;DHT22;59686;51.716;7.016;2023-01-10T02:17:14;9.50;85.50
71837;DHT22;59686;51.716;7.016;2023-01-10T02:33:46;9.50;85.60
71837;DHT22;59686;51.716;7.016;2023-01-10T02:39:11;9.50;85.30
71837;DHT22;59686;51.716;7.016;2023-01-10T02:41:57;9.60;85.30
71837;DHT22;59686;51.716;7.016;2023-01-10T02:44:41;9.50;85.30
71837;DHT22;59686;51.716;7.016;2023-01-10T02:47:08;9.40;85.30
71837;DHT22;59686;51.716;7.016;2023-01-10T02:49:45;9.40;85.40
71837;DHT22;59686;51.716;7.016;2023-01-10T02:52:21;9.50;85.50
71837;DHT22;59686;51.716;7.016;2023-01-10T02:54:51;9.50;85.30
71837;DHT22;59686;51.716;7.016;2023-01-10T02:57:48;9.50;85.40
71837;DHT22;59686;51.716;7.016;2023-01-10T03:00:40;9.50;85.20
71837;DHT22;59686;51.716;7.016;2023-01-10T03:03:17;9.40;85.20
71837;DHT22;59686;51.716;7.016;2023-01-10T03:06:06;9.50;85.30
71837;DHT22;59686;51.716;7.016;2023-01-10T03:11:34;9.50;85.40
71837;DHT22;59686;51.716;7.016;2023-01-10T03:14:16;9.40;85.40
71837;DHT22;59686;51.716;7.016;2023-01-10T03:16:47;9.40;85.30
71837;DHT22;59686;51.716;7.016;2023-01-10T03:19:21;9.40;85.30
71837;DHT22;59686;51.716;7.016;2023-01-10T03:21:48;9.40;85.40
71837;DHT22;59686;51.716;7.016;2023-01-10T03:24:35;9.40;85.20
71837;DHT22;59686;51.716;7.016;2023-01-10T03:27:08;9.50;85.30
71837;DHT22;59686;51.716;7.016;2023-01-10T03:29:44;9.40;85.10
71837;DHT22;59686;51.716;7.016;2023-01-10T03:32:17;9.40;85.20
71837;DHT22;59686;51.716;7.016;2023-01-10T03:34:44;9.40;85.20
71837;DHT22;59686;51.716;7.016;2023-01-10T03:37:13;9.40;85.30
71837;DHT22;59686;51.716;7.016;2023-01-10T03:39:58;9.40;85.20
71837;DHT22;59686;51.716;7.016;2023-01-10T03:42:41;9.40;85.20
71837;DHT22;59686;51.716;7.016;2023-01-10T03:45:39;9.40;85.10
71837;DHT22;59686;51.716;7.016;2023-01-10T03:48:07;9.40;84.90
71837;DHT22;59686;51.716;7.016;2023-01-10T03:50:36;9.40;85.10
71837;DHT22;59686;51.716;7.016;2023-01-10T03:53:04;9.40;85.20
71837;DHT22;59686;51.716;7.016;2023-01-10T03:55:30;9.40;85.20
71837;DHT22;59686;51.716;7.016;2023-01-10T03:57:56;9.40;85.10
71837;DHT22;59686;51.716;7.016;2023-01-10T04:00:22;9.50;85.00
71837;DHT22;59686;51.716;7.016;2023-01-10T04:02:48;9.40;85.10
71837;DHT22;59686;51.716;7.016;2023-01-10T04:05:14;9.40;85.00
71837;DHT22;59686;51.716;7.016;2023-01-10T04:07:40;9.40;84.90
71837;DHT22;59686;51.716;7.016;2023-01-10T04:10:06;9.50;85.00
71837;DHT22;59686;51.716;7.016;2023-01-10T04:12:32;9.40;84.80
71837;DHT22;59686;51.716;7.016;2023-01-10T04:14:58;9.30;85.00
71837;DHT22;59686;51.716;7.016;2023-01-10T04:17:24;9.30;85.00
71837;DHT22;59686;51.716;7.016;2023-01-10T04:20:03;9.30;85.00
71837;DHT22;59686;51.716;7.016;2023-01-10T04:22:28;9.30;85.00
71837;DHT22;59686;51.716;7.016;2023-01-10T04:24:54;9.40;85.20
71837;DHT22;59686;51.716;7.016;2023-01-10T04:27:20;9.40;85.20
71837;DHT22;59686;51.716;7.016;2023-01-10T04:29:45;9.40;85.00
71837;DHT22;59686;51.716;7.016;2023-01-10T04:32:11;9.30;84.90
71837;DHT22;59686;51.716;7.016;2023-01-10T04:34:37;9.40;85.10
71837;DHT22;59686;51.716;7.016;2023-01-10T04:37:04;9.30;84.90
71837;DHT22;59686;51.716;7.016;2023-01-10T04:39:29;9.30;84.90
71837;DHT22;59686;51.716;7.016;2023-01-10T04:41:55;9.30;84.90
71837;DHT22;59686;51.716;7.016;2023-01-10T04:44:21;9.40;85.00
71837;DHT22;59686;51.716;7.016;2023-01-10T04:46:47;9.30;85.00
71837;DHT22;59686;51.716;7.016;2023-01-10T04:49:12;9.30;85.00
71837;DHT22;59686;51.716;7.016;2023-01-10T04:51:38;9.30;85.00
71837;DHT22;59686;51.716;7.016;2023-01-10T04:54:04;9.30;84.90
71837;DHT22;59686;51.716;7.016;2023-01-10T04:56:29;9.30;85.00
71837;DHT22;59686;51.716;7.016;2023-01-10T04:58:55;9.30;84.80
71837;DHT22;59686;51.716;7.016;2023-01-10T05:01:23;9.30;84.80
71837;DHT22;59686;51.716;7.016;2023-01-10T05:03:50;9.30;84.80
71837;DHT22;59686;51.716;7.016;2023-01-10T05:06:16;9.30;84.80
71837;DHT22;59686;51.716;7.016;2023-01-10T05:08:42;9.30;84.90
71837;DHT22;59686;51.716;7.016;2023-01-10T05:11:08;9.30;84.80
71837;DHT22;59686;51.716;7.016;2023-01-10T05:13:34;9.30;84.60
71837;DHT22;59686;51.716;7.016;2023-01-10T05:16:05;9.30;84.70
71837;DHT22;59686;51.716;7.016;2023-01-10T05:18:31;9.30;84.70
71837;DHT22;59686;51.716;7.016;2023-01-10T05:21:05;9.30;84.80
71837;DHT22;59686;51.716;7.016;2023-01-10T05:23:31;9.30;84.50
71837;DHT22;59686;51.716;7.016;2023-01-10T05:25:57;9.20;84.50
71837;DHT22;59686;51.716;7.016;2023-01-10T05:28:29;9.20;84.60
71837;DHT22;59686;51.716;7.016;2023-01-10T05:30:58;9.20;84.70
71837;DHT22;59686;51.716;7.016;2023-01-10T05:33:23;9.30;84.70
71837;DHT22;59686;51.716;7.016;2023-01-10T05:35:49;9.30;84.80
71837;DHT22;59686;51.716;7.016;2023-01-10T05:38:14;9.20;85.40
71837;DHT22;59686;51.716;7.016;2023-01-10T05:40:40;9.20;84.70
71837;DHT22;59686;51.716;7.016;2023-01-10T05:43:06;9.20;84.70
71837;DHT22;59686;51.716;7.016;2023-01-10T05:45:31;9.20;84.60
71837;DHT22;59686;51.716;7.016;2023-01-10T05:47:57;9.20;84.60
71837;DHT22;59686;51.716;7.016;2023-01-10T05:50:23;9.40;84.90
71837;DHT22;59686;51.716;7.016;2023-01-10T05:52:48;9.20;84.60
71837;DHT22;59686;51.716;7.016;2023-01-10T05:55:14;9.20;84.70
71837;DHT22;59686;51.716;7.016;2023-01-10T05:57:40;9.20;84.70
71837;DHT22;59686;51.716;7.016;2023-01-10T06:00:06;9.20;84.70
71837;DHT22;59686;51.716;7.016;2023-01-10T06:02:32;9.20;84.70
71837;DHT22;59686;51.716;7.016;2023-01-10T06:04:59;9.20;84.70
71837;DHT22;59686;51.716;7.016;2023-01-10T06:07:24;9.20;84.70
71837;DHT22;59686;51.716;7.016;2023-01-10T06:09:50;9.30;84.80
71837;DHT22;59686;51.716;7.016;2023-01-10T06:12:16;9.30;84.70
71837;DHT22;59686;51.716;7.016;2023-01-10T06:14:45;9.10;84.70
71837;DHT22;59686;51.716;7.016;2023-01-10T06:17:11;9.20;84.70
71837;DHT22;59686;51.716;7.016;2023-01-10T06:19:37;9.20;84.70
71837;DHT22;59686;51.716;7.016;2023-01-10T06:22:03;9.30;84.60
71837;DHT22;59686;51.716;7.016;2023-01-10T06:24:28;9.20;84.50
71837;DHT22;59686;51.716;7.016;2023-01-10T06:26:54;9.20;84.40
71837;DHT22;59686;51.716;7.016;2023-01-10T06:29:20;9.20;84.40
71837;DHT22;59686;51.716;7.016;2023-01-10T06:31:46;9.20;84.50
71837;DHT22;59686;51.716;7.016;2023-01-10T06:34:11;9.20;84.50
71837;DHT22;59686;51.716;7.016;2023-01-10T06:36:37;9.20;84.50
71837;DHT22;59686;51.716;7.016;2023-01-10T06:39:03;9.20;84.40
71837;DHT22;59686;51.716;7.016;2023-01-10T06:41:29;9.10;84.30
71837;DHT22;59686;51.716;7.016;2023-01-10T06:43:54;9.20;84.40
71837;DHT22;59686;51.716;7.016;2023-01-10T06:46:20;9.20;84.40
71837;DHT22;59686;51.716;7.016;2023-01-10T06:48:46;9.10;84.40
71837;DHT22;59686;51.716;7.016;2023-01-10T06:51:14;9.20;84.40
71837;DHT22;59686;51.716;7.016;2023-01-10T06:53:40;9.10;85.20
71837;DHT22;59686;51.716;7.016;2023-01-10T06:56:06;9.10;84.40
71837;DHT22;59686;51.716;7.016;2023-01-10T06:58:34;9.20;84.50
71837;DHT22;59686;51.716;7.016;2023-01-10T07:01:06;9.10;84.40
71837;DHT22;59686;51.716;7.016;2023-01-10T07:03:32;9.10;84.50
71837;DHT22;59686;51.716;7.016;2023-01-10T07:06:01;9.20;84.30
71837;DHT22;59686;51.716;7.016;2023-01-10T07:08:28;9.20;84.30
71837;DHT22;59686;51.716;7.016;2023-01-10T07:10:57;9.10;84.20
71837;DHT22;59686;51.716;7.016;2023-01-10T07:13:25;9.20;84.30
71837;DHT22;59686;51.716;7.016;2023-01-10T07:15:51;9.10;84.20
71837;DHT22;59686;51.716;7.016;2023-01-10T07:18:17;9.10;84.30
71837;DHT22;59686;51.716;7.016;2023-01-10T07:20:43;9.20;84.30
71837;DHT22;59686;51.716;7.016;2023-01-10T07:23:09;9.10;84.30
71837;DHT22;59686;51.716;7.016;2023-01-10T07:25:34;9.10;84.20
71837;DHT22;59686;51.716;7.016;2023-01-10T07:28:00;9.10;84.20
71837;DHT22;59686;51.716;7.016;2023-01-10T07:30:26;9.10;84.20
71837;DHT22;59686;51.716;7.016;2023-01-10T07:32:57;9.20;84.30
71837;DHT22;59686;51.716;7.016;2023-01-10T07:35:24;9.10;84.20
71837;DHT22;59686;51.716;7.016;2023-01-10T07:37:50;9.20;84.30
71837;DHT22;59686;51.716;7.016;2023-01-10T07:40:15;9.10;84.20
71837;DHT22;59686;51.716;7.016;2023-01-10T07:42:41;9.10;84.30
71837;DHT22;59686;51.716;7.016;2023-01-10T07:45:07;9.20;84.20
71837;DHT22;59686;51.716;7.016;2023-01-10T07:47:33;9.10;84.20
71837;DHT22;59686;51.716;7.016;2023-01-10T07:49:59;9.10;84.30
71837;DHT22;59686;51.716;7.016;2023-01-10T07:52:28;9.10;84.20
71837;DHT22;59686;51.716;7.016;2023-01-10T07:54:53;9.10;84.20
71837;DHT22;59686;51.716;7.016;2023-01-10T07:57:19;9.10;84.30
71837;DHT22;59686;51.716;7.016;2023-01-10T07:59:45;9.10;84.20
71837;DHT22;59686;51.716;7.016;2023-01-10T08:02:10;9.20;84.30
71837;DHT22;59686;51.716;7.016;2023-01-10T08:04:36;9.10;84.10
71837;DHT22;59686;51.716;7.016;2023-01-10T08:07:04;9.10;84.20
71837;DHT22;59686;51.716;7.016;2023-01-10T08:09:31;9.10;84.10
71837;DHT22;59686;51.716;7.016;2023-01-10T08:11:57;9.20;84.00
71837;DHT22;59686;51.716;7.016;2023-01-10T08:14:22;9.20;84.20
71837;DHT22;59686;51.716;7.016;2023-01-10T08:16:48;9.10;84.20
71837;DHT22;59686;51.716;7.016;2023-01-10T08:19:14;9.00;83.90
71837;DHT22;59686;51.716;7.016;2023-01-10T08:21:42;9.10;84.20
71837;DHT22;59686;51.716;7.016;2023-01-10T08:24:08;9.10;84.10
71837;DHT22;59686;51.716;7.016;2023-01-10T08:26:34;9.10;84.10
71837;DHT22;59686;51.716;7.016;2023-01-10T08:29:00;9.20;84.20
71837;DHT22;59686;51.716;7.016;2023-01-10T08:31:26;9.10;84.10
71837;DHT22;59686;51.716;7.016;2023-01-10T08:33:52;9.10;84.00
71837;DHT22;59686;51.716;7.016;2023-01-10T08:36:19;9.10;84.10
71837;DHT22;59686;51.716;7.016;2023-01-10T08:38:46;9.20;84.00
71837;DHT22;59686;51.716;7.016;2023-01-10T08:41:13;9.00;84.00
71837;DHT22;59686;51.716;7.016;2023-01-10T08:43:38;9.00;84.00
71837;DHT22;59686;51.716;7.016;2023-01-10T08:46:05;9.00;84.00
71837;DHT22;59686;51.716;7.016;2023-01-10T08:48:31;9.00;84.00
71837;DHT22;59686;51.716;7.016;2023-01-10T08:50:56;9.00;84.00
71837;DHT22;59686;51.716;7.016;2023-01-10T08:53:22;9.10;83.90
71837;DHT22;59686;51.716;7.016;2023-01-10T08:55:48;9.10;84.00
71837;DHT22;59686;51.716;7.016;2023-01-10T08:58:14;9.10;84.00
71837;DHT22;59686;51.716;7.016;2023-01-10T09:00:40;9.10;84.00
71837;DHT22;59686;51.716;7.016;2023-01-10T09:03:06;9.00;84.00
71837;DHT22;59686;51.716;7.016;2023-01-10T09:05:33;9.00;84.00
71837;DHT22;59686;51.716;7.016;2023-01-10T09:08:00;9.10;83.90
71837;DHT22;59686;51.716;7.016;2023-01-10T09:10:27;9.10;83.90
71837;DHT22;59686;51.716;7.016;2023-01-10T09:12:53;9.00;83.90
71837;DHT22;59686;51.716;7.016;2023-01-10T09:15:23;9.10;84.10
71837;DHT22;59686;51.716;7.016;2023-01-10T09:17:52;9.00;84.00
71837;DHT22;59686;51.716;7.016;2023-01-10T09:20:18;9.10;84.00
71837;DHT22;59686;51.716;7.016;2023-01-10T09:22:43;9.10;83.90
71837;DHT22;59686;51.716;7.016;2023-01-10T09:25:09;9.10;83.90
71837;DHT22;59686;51.716;7.016;2023-01-10T09:27:35;8.90;83.90
71837;DHT22;59686;51.716;7.016;2023-01-10T09:30:02;9.00;83.90
71837;DHT22;59686;51.716;7.016;2023-01-10T09:32:27;9.00;84.00
71837;DHT22;59686;51.716;7.016;2023-01-10T09:34:53;9.20;84.10
71837;DHT22;59686;51.716;7.016;2023-01-10T09:37:19;9.10;84.00
71837;DHT22;59686;51.716;7.016;2023-01-10T09:39:44;9.10;84.10
71837;DHT22;59686;51.716;7.016;2023-01-10T09:47:50;9.00;83.80
71837;DHT22;59686;51.716;7.016;2023-01-10T09:53:02;9.10;83.90
71837;DHT22;59686;51.716;7.016;2023-01-10T09:55:35;9.00;83.80
71837;DHT22;59686;51.716;7.016;2023-01-10T09:58:13;9.10;83.80
71837;DHT22;59686;51.716;7.016;2023-01-10T10:00:58;9.10;83.80
71837;DHT22;59686;51.716;7.016;2023-01-10T10:06:13;9.10;83.90
71837;DHT22;59686;51.716;7.016;2023-01-10T10:08:43;9.00;84.50
71837;DHT22;59686;51.716;7.016;2023-01-10T10:26:17;9.10;83.70
71837;DHT22;59686;51.716;7.016;2023-01-10T10:36:53;9.10;83.80
71837;DHT22;59686;51.716;7.016;2023-01-10T10:42:22;9.10;83.80
71837;DHT22;59686;51.716;7.016;2023-01-10T10:45:04;9.10;83.60
71837;DHT22;59686;51.716;7.016;2023-01-10T10:47:34;9.10;83.60
71837;DHT22;59686;51.716;7.016;2023-01-10T10:50:27;9.10;83.70
71837;DHT22;59686;51.716;7.016;2023-01-10T10:52:55;9.10;83.80
71837;DHT22;59686;51.716;7.016;2023-01-10T10:55:29;9.10;83.50
71837;DHT22;59686;51.716;7.016;2023-01-10T10:57:56;9.10;83.60
71837;DHT22;59686;51.716;7.016;2023-01-10T11:00:22;9.10;83.60
71837;DHT22;59686;51.716;7.016;2023-01-10T11:03:27;9.20;83.60
71837;DHT22;59686;51.716;7.016;2023-01-10T11:05:54;9.20;83.60
71837;DHT22;59686;51.716;7.016;2023-01-10T11:08:20;9.20;83.50
71837;DHT22;59686;51.716;7.016;2023-01-10T11:10:56;9.20;83.40
71837;DHT22;59686;51.716;7.016;2023-01-10T11:13:38;9.20;83.50
71837;DHT22;59686;51.716;7.016;2023-01-10T11:16:06;9.10;83.50
71837;DHT22;59686;51.716;7.016;2023-01-10T11:18:32;9.10;83.60
71837;DHT22;59686;51.716;7.016;2023-01-10T11:21:05;9.10;83.50
71837;DHT22;59686;51.716;7.016;2023-01-10T11:23:52;9.20;83.50
71837;DHT22;59686;51.716;7.016;2023-01-10T11:31:37;9.20;83.40
71837;DHT22;59686;51.716;7.016;2023-01-10T11:34:06;9.20;83.40
71837;DHT22;59686;51.716;7.016;2023-01-10T11:36:53;9.10;83.40
71837;DHT22;59686;51.716;7.016;2023-01-10T11:39:19;9.10;83.30
71837;DHT22;59686;51.716;7.016;2023-01-10T11:41:45;9.10;83.30
71837;DHT22;59686;51.716;7.016;2023-01-10T11:46:44;9.20;83.30
71837;DHT22;59686;51.716;7.016;2023-01-10T11:49:12;9.20;83.20
71837;DHT22;59686;51.716;7.016;2023-01-10T11:51:47;9.20;83.30
71837;DHT22;59686;51.716;7.016;2023-01-10T11:54:22;9.20;83.30
71837;DHT22;59686;51.716;7.016;2023-01-10T11:57:06;9.20;83.30
71837;DHT22;59686;51.716;7.016;2023-01-10T11:59:32;9.20;83.40
71837;DHT22;59686;51.716;7.016;2023-01-10T12:02:09;9.20;83.30
71837;DHT22;59686;51.716;7.016;2023-01-10T12:04:40;9.20;83.40
71837;DHT22;59686;51.716;7.016;2023-01-10T12:07:10;9.20;83.30
71837;DHT22;59686;51.716;7.016;2023-01-10T12:09:39;9.20;83.20
71837;DHT22;59686;51.716;7.016;2023-01-10T12:14:39;9.30;83.30
71837;DHT22;59686;51.716;7.016;2023-01-10T12:17:04;9.20;83.30
71837;DHT22;59686;51.716;7.016;2023-01-10T12:19:30;9.20;83.20
71837;DHT22;59686;51.716;7.016;2023-01-10T12:22:01;9.20;83.50
71837;DHT22;59686;51.716;7.016;2023-01-10T12:24:31;9.20;83.20
71837;DHT22;59686;51.716;7.016;2023-01-10T12:27:01;9.20;83.10
71837;DHT22;59686;51.716;7.016;2023-01-10T12:29:32;9.10;82.90
71837;DHT22;59686;51.716;7.016;2023-01-10T12:32:03;9.20;83.10
71837;DHT22;59686;51.716;7.016;2023-01-10T12:34:40;9.20;83.20
71837;DHT22;59686;51.716;7.016;2023-01-10T12:37:21;9.20;83.10
71837;DHT22;59686;51.716;7.016;2023-01-10T12:39:52;9.20;83.10
71837;DHT22;59686;51.716;7.016;2023-01-10T12:42:43;9.20;83.30
71837;DHT22;59686;51.716;7.016;2023-01-10T12:45:29;9.20;83.10
71837;DHT22;59686;51.716;7.016;2023-01-10T12:50:53;9.20;83.00
71837;DHT22;59686;51.716;7.016;2023-01-10T12:56:00;9.20;83.10
71837;DHT22;59686;51.716;7.016;2023-01-10T12:58:41;9.20;83.00
71837;DHT22;59686;51.716;7.016;2023-01-10T13:01:11;9.20;83.10
71837;DHT22;59686;51.716;7.016;2023-01-10T13:03:38;9.20;83.00
71837;DHT22;59686;51.716;7.016;2023-01-10T13:06:04;9.20;83.20
71837;DHT22;59686;51.716;7.016;2023-01-10T13:08:34;9.20;83.00
71837;DHT22;59686;51.716;7.016;2023-01-10T13:11:02;9.20;83.10
71837;DHT22;59686;51.716;7.016;2023-01-10T13:14:15;9.20;83.10
71837;DHT22;59686;51.716;7.016;2023-01-10T13:19:25;9.20;83.10
71837;DHT22;59686;51.716;7.016;2023-01-10T13:22:21;9.20;83.00
71837;DHT22;59686;51.716;7.016;2023-01-10T13:25:00;9.30;83.00
71837;DHT22;59686;51.716;7.016;2023-01-10T13:27:31;9.20;83.00
71837;DHT22;59686;51.716;7.016;2023-01-10T13:29:58;9.30;83.10
71837;DHT22;59686;51.716;7.016;2023-01-10T13:32:29;9.20;82.80
71837;DHT22;59686;51.716;7.016;2023-01-10T13:37:37;9.20;83.00
71837;DHT22;59686;51.716;7.016;2023-01-10T13:40:04;9.30;83.20
71837;DHT22;59686;51.716;7.016;2023-01-10T13:42:32;9.20;83.10
71837;DHT22;59686;51.716;7.016;2023-01-10T13:45:22;9.30;83.00
71837;DHT22;59686;51.716;7.016;2023-01-10T13:52:53;9.20;83.10
71837;DHT22;59686;51.716;7.016;2023-01-10T13:57:57;9.30;83.20
71837;DHT22;59686;51.716;7.016;2023-01-10T14:03:36;9.30;83.10
71837;DHT22;59686;51.716;7.016;2023-01-10T14:06:04;9.40;83.10
71837;DHT22;59686;51.716;7.016;2023-01-10T14:08:33;9.40;83.10
71837;DHT22;59686;51.716;7.016;2023-01-10T14:11:10;9.30;82.90
71837;DHT22;59686;51.716;7.016;2023-01-10T14:13:36;9.30;83.00
71837;DHT22;59686;51.716;7.016;2023-01-10T14:16:02;9.30;83.10
71837;DHT22;59686;51.716;7.016;2023-01-10T14:18:35;9.30;83.10
71837;DHT22;59686;51.716;7.016;2023-01-10T14:21:07;9.20;83.00
71837;DHT22;59686;51.716;7.016;2023-01-10T14:23:42;9.30;83.20
71837;DHT22;59686;51.716;7.016;2023-01-10T14:26:28;9.20;83.10
71837;DHT22;59686;51.716;7.016;2023-01-10T14:28:55;9.30;83.00
71837;DHT22;59686;51.716;7.016;2023-01-10T14:31:23;9.30;82.90
71837;DHT22;59686;51.716;7.016;2023-01-10T14:33:52;9.30;82.80
71837;DHT22;59686;51.716;7.016;2023-01-10T14:36:49;9.30;82.70
71837;DHT22;59686;51.716;7.016;2023-01-10T14:39:16;9.30;82.60
71837;DHT22;59686;51.716;7.016;2023-01-10T14:41:45;9.30;82.50
71837;DHT22;59686;51.716;7.016;2023-01-10T14:44:30;9.30;82.20
71837;DHT22;59686;51.716;7.016;2023-01-10T14:46:58;9.30;82.20
71837;DHT22;59686;51.716;7.016;2023-01-10T14:49:35;9.30;81.70
71837;DHT22;59686;51.716;7.016;2023-01-10T14:52:23;9.30;81.80
71837;DHT22;59686;51.716;7.016;2023-01-10T14:55:11;9.30;81.60
71837;DHT22;59686;51.716;7.016;2023-01-10T14:57:37;9.30;81.50
71837;DHT22;59686;51.716;7.016;2023-01-10T15:00:15;9.30;81.40
71837;DHT22;59686;51.716;7.016;2023-01-10T15:02:47;9.30;81.60
71837;DHT22;59686;51.716;7.016;2023-01-10T15:05:22;9.30;81.70
71837;DHT22;59686;51.716;7.016;2023-01-10T15:08:28;9.30;81.60
71837;DHT22;59686;51.716;7.016;2023-01-10T15:11:00;9.30;81.70
71837;DHT22;59686;51.716;7.016;2023-01-10T15:13:27;9.30;81.40
71837;DHT22;59686;51.716;7.016;2023-01-10T15:15:54;9.30;81.30
71837;DHT22;59686;51.716;7.016;2023-01-10T15:18:42;9.30;81.50
71837;DHT22;59686;51.716;7.016;2023-01-10T15:21:11;9.30;81.20
71837;DHT22;59686;51.716;7.016;2023-01-10T15:23:40;9.30;81.10
71837;DHT22;59686;51.716;7.016;2023-01-10T15:26:09;9.30;81.30
71837;DHT22;59686;51.716;7.016;2023-01-10T15:28:36;9.30;81.20
71837;DHT22;59686;51.716;7.016;2023-01-10T15:31:04;9.30;81.10
71837;DHT22;59686;51.716;7.016;2023-01-10T15:33:31;9.30;81.10
71837;DHT22;59686;51.716;7.016;2023-01-10T15:36:09;9.30;80.80
71837;DHT22;59686;51.716;7.016;2023-01-10T15:38:43;9.30;80.50
71837;DHT22;59686;51.716;7.016;2023-01-10T15:41:19;9.30;80.90
71837;DHT22;59686;51.716;7.016;2023-01-10T15:43:46;9.30;81.00
71837;DHT22;59686;51.716;7.016;2023-01-10T15:46:23;9.30;81.00
71837;DHT22;59686;51.716;7.016;2023-01-10T15:48:56;9.30;80.90
71837;DHT22;59686;51.716;7.016;2023-01-10T15:51:36;9.30;80.60
71837;DHT22;59686;51.716;7.016;2023-01-10T15:54:05;9.30;80.80
71837;DHT22;59686;51.716;7.016;2023-01-10T15:56:50;9.30;80.70
71837;DHT22;59686;51.716;7.016;2023-01-10T16:04:42;9.30;80.40
71837;DHT22;59686;51.716;7.016;2023-01-10T16:07:29;9.30;80.30
71837;DHT22;59686;51.716;7.016;2023-01-10T16:10:05;9.30;80.10
71837;DHT22;59686;51.716;7.016;2023-01-10T16:12:37;9.30;80.20
71837;DHT22;59686;51.716;7.016;2023-01-10T16:15:36;9.30;80.20
71837;DHT22;59686;51.716;7.016;2023-01-10T16:18:04;9.30;80.50
71837;DHT22;59686;51.716;7.016;2023-01-10T16:20:32;9.30;80.30
71837;DHT22;59686;51.716;7.016;2023-01-10T16:23:00;9.20;80.10
71837;DHT22;59686;51.716;7.016;2023-01-10T16:25:35;9.30;80.50
71837;DHT22;59686;51.716;7.016;2023-01-10T16:28:02;9.30;80.60
71837;DHT22;59686;51.716;7.016;2023-01-10T16:30:31;9.30;80.60
71837;DHT22;59686;51.716;7.016;2023-01-10T16:32:59;9.30;80.80
71837;DHT22;59686;51.716;7.016;2023-01-10T16:35:27;9.30;81.10
71837;DHT22;59686;51.716;7.016;2023-01-10T16:37:56;9.30;81.30
71837;DHT22;59686;51.716;7.016;2023-01-10T16:40:37;9.30;81.40
71837;DHT22;59686;51.716;7.016;2023-01-10T16:43:03;9.30;81.60
71837;DHT22;59686;51.716;7.016;2023-01-10T16:45:51;9.30;81.90
71837;DHT22;59686;51.716;7.016;2023-01-10T16:48:19;9.30;81.90
71837;DHT22;59686;51.716;7.016;2023-01-10T16:50:46;9.30;82.10
71837;DHT22;59686;51.716;7.016;2023-01-10T16:53:13;9.30;82.10
71837;DHT22;59686;51.716;7.016;2023-01-10T16:55:50;9.30;82.30
71837;DHT22;59686;51.716;7.016;2023-01-10T16:58:19;9.30;82.50
71837;DHT22;59686;51.716;7.016;2023-01-10T17:00:47;9.30;82.60
71837;DHT22;59686;51.716;7.016;2023-01-10T17:03:19;9.30;83.20
71837;DHT22;59686;51.716;7.016;2023-01-10T17:05:46;9.20;82.90
71837;DHT22;59686;51.716;7.016;2023-01-10T17:08:17;9.20;83.10
71837;DHT22;59686;51.716;7.016;2023-01-10T17:10:44;9.20;83.20
71837;DHT22;59686;51.716;7.016;2023-01-10T17:13:11;9.20;83.30
71837;DHT22;59686;51.716;7.016;2023-01-10T17:15:38;9.30;83.50
71837;DHT22;59686;51.716;7.016;2023-01-10T17:18:04;9.20;83.50
71837;DHT22;59686;51.716;7.016;2023-01-10T17:20:29;9.20;83.80
71837;DHT22;59686;51.716;7.016;2023-01-10T17:22:56;9.20;83.90
71837;DHT22;59686;51.716;7.016;2023-01-10T17:25:22;9.20;83.90
71837;DHT22;59686;51.716;7.016;2023-01-10T17:27:48;9.20;84.10
71837;DHT22;59686;51.716;7.016;2023-01-10T17:30:14;9.30;84.30
71837;DHT22;59686;51.716;7.016;2023-01-10T17:32:39;9.20;84.30
71837;DHT22;59686;51.716;7.016;2023-01-10T17:35:06;9.20;84.40
71837;DHT22;59686;51.716;7.016;2023-01-10T17:37:33;9.20;84.40
71837;DHT22;59686;51.716;7.016;2023-01-10T17:39:59;9.20;84.50
71837;DHT22;59686;51.716;7.016;2023-01-10T17:42:25;9.30;84.60